.
WxDataArchive / Data Records for 2016-05-24
2016-05-23 May 2016 2016-05-25

Data Records for Tuesday, 24 May 2016

Time	Temp	Chill	HIndex	Humid	Dewpt	 Wind 	HiWind	WindDir	Rain 	Barom
-----	----	-----	------	-----	-----	------	------	-------	-----	-----
00:00	55.6	55.6	55.6	64	43.6	0	0	---	0.00	29.969 
00:05	55.3	55.3	55.3	65	43.7	0	0	---	0.00	29.969 
00:10	55.1	55.1	55.1	66	43.9	0	0	---	0.00	29.969 
00:15	54.8	54.8	54.8	66	43.7	0	0	---	0.00	29.965 
00:20	54.7	54.7	54.7	67	44.0	0	0	---	0.00	29.965 
00:25	54.4	54.4	54.4	68	44.1	0	0	---	0.00	29.965 
00:30	54.2	54.2	54.2	68	43.9	0	0	---	0.00	29.966 
00:35	54.1	54.1	54.1	69	44.2	0	0	---	0.00	29.966 
00:40	53.9	53.9	53.9	69	44.0	0	0	---	0.00	29.966 
00:45	53.8	53.8	53.8	70	44.2	0	0	---	0.00	29.965 
00:50	53.6	53.6	53.6	71	44.4	0	0	---	0.00	29.965 
00:55	53.5	53.5	53.5	72	44.7	0	0	---	0.00	29.965 
01:00	53.3	53.3	53.3	73	44.9	0	0	---	0.00	29.968 
01:05	53.3	53.3	53.3	73	44.9	0	0	---	0.00	29.968 
01:10	53.2	53.2	53.2	74	45.1	0	0	---	0.00	29.968 
01:15	53.1	53.1	53.1	75	45.4	0	0	---	0.00	29.967 
01:20	52.9	52.9	52.9	75	45.2	0	0	---	0.00	29.967 
01:25	52.8	52.8	52.8	76	45.4	0	0	---	0.00	29.967 
01:30	52.6	52.6	52.6	76	45.3	0	0	---	0.00	29.967 
01:35	52.3	52.3	52.3	76	45.0	0	0	---	0.00	29.967 
01:40	52.2	52.2	52.2	76	44.9	0	0	---	0.00	29.967 
01:45	52.0	52.0	52.0	76	44.7	0	0	---	0.00	29.969 
01:50	51.7	51.7	51.7	76	44.4	0	0	---	0.00	29.969 
01:55	51.6	51.6	51.6	77	44.6	0	0	---	0.00	29.969 
02:00	51.4	51.4	51.4	76	44.1	0	0	---	0.00	29.968 
02:05	51.1	51.1	51.1	77	44.1	0	0	---	0.00	29.968 
02:10	51.0	51.0	51.0	77	44.0	0	0	---	0.00	29.968 
02:15	51.0	51.0	51.0	78	44.4	0	0	---	0.00	29.961 
02:20	50.8	50.8	50.8	78	44.2	0	0	---	0.00	29.961 
02:25	50.7	50.7	50.7	79	44.4	0	0	---	0.00	29.961 
02:30	50.7	50.7	50.7	80	44.8	0	0	---	0.00	29.956 
02:35	50.5	50.5	50.5	81	44.9	0	0	---	0.00	29.956 
02:40	50.4	50.4	50.4	81	44.8	0	0	---	0.00	29.956 
02:45	50.2	50.2	50.2	81	44.6	0	0	---	0.00	29.957 
02:50	50.1	50.1	50.1	81	44.5	0	0	---	0.00	29.957 
02:55	50.1	50.1	50.1	81	44.5	0	0	---	0.00	29.957 
03:00	49.9	49.9	49.9	81	44.3	0	0	---	0.00	29.959 
03:05	49.8	49.8	49.8	82	44.5	0	0	---	0.00	29.959 
03:10	49.6	49.6	49.6	82	44.3	0	0	---	0.00	29.959 
03:15	49.5	49.5	49.5	82	44.2	0	0	---	0.00	29.957 
03:20	49.4	49.4	49.4	82	44.1	0	0	---	0.00	29.957 
03:25	49.4	49.4	49.4	82	44.1	0	0	---	0.00	29.957 
03:30	49.2	49.2	49.2	82	43.9	0	0	---	0.00	29.954 
03:35	49.2	49.2	49.2	82	43.9	0	0	---	0.00	29.954 
03:40	49.2	49.2	49.2	82	43.9	0	0	---	0.00	29.954 
03:45	48.9	48.9	48.9	82	43.6	0	0	---	0.00	29.953 
03:50	48.9	48.9	48.9	82	43.6	0	0	---	0.00	29.953 
03:55	48.8	48.8	48.8	82	43.6	0	0	---	0.00	29.953 
04:00	48.8	48.8	48.8	82	43.6	0	0	---	0.00	29.955 
04:05	48.8	48.8	48.8	83	43.9	0	0	---	0.00	29.955 
04:10	48.6	48.6	48.6	83	43.7	0	0	---	0.00	29.955 
04:15	48.6	48.6	48.6	83	43.7	0	0	---	0.00	29.957 
04:20	48.6	48.6	48.6	83	43.7	0	0	---	0.00	29.957 
04:25	48.5	48.5	48.5	83	43.6	0	0	---	0.00	29.957 
04:30	48.5	48.5	48.5	84	43.9	0	0	---	0.00	29.964 
04:35	48.3	48.3	48.3	84	43.7	0	0	---	0.00	29.964 
04:40	48.3	48.3	48.3	84	43.7	0	0	---	0.00	29.964 
04:45	48.3	48.3	48.3	84	43.7	0	0	---	0.00	29.969 
04:50	48.3	48.3	48.3	84	43.7	0	0	---	0.00	29.969 
04:55	48.2	48.2	48.2	84	43.6	0	0	---	0.00	29.969 
05:00	48.2	48.2	48.2	84	43.6	0	0	---	0.00	29.972 
05:05	48.0	48.0	48.0	84	43.4	0	0	---	0.00	29.972 
05:10	48.0	48.0	48.0	84	43.4	0	0	---	0.00	29.972 
05:15	48.0	48.0	48.0	84	43.4	0	0	---	0.00	29.978 
05:20	48.0	48.0	48.0	84	43.4	0	0	---	0.00	29.978 
05:25	48.0	48.0	48.0	84	43.4	0	0	---	0.00	29.978 
05:30	48.0	48.0	48.0	84	43.4	0	0	---	0.00	29.983 
05:35	47.9	47.9	47.9	85	43.6	0	0	---	0.00	29.983 
05:40	47.9	47.9	47.9	85	43.6	0	0	---	0.00	29.983 
05:45	47.7	47.7	47.7	85	43.4	0	0	---	0.00	29.984 
05:50	47.7	47.7	47.7	85	43.4	0	0	---	0.00	29.984 
05:55	47.6	47.6	47.6	85	43.3	0	0	---	0.00	29.984 
06:00	47.6	47.6	47.6	85	43.3	0	0	---	0.00	29.986 
06:05	47.4	47.4	47.4	86	43.4	0	0	---	0.00	29.986 
06:10	47.4	47.4	47.4	86	43.4	0	0	---	0.00	29.986 
06:15	47.3	47.3	47.3	86	43.3	0	0	---	0.00	29.991 
06:20	47.3	47.3	47.3	86	43.3	0	0	---	0.00	29.991 
06:25	47.3	47.3	47.3	86	43.3	0	0	---	0.00	29.991 
06:30	47.3	47.3	47.3	87	43.6	0	0	---	0.00	30.000 
06:35	47.3	47.3	47.3	87	43.6	0	0	---	0.00	30.000 
06:40	47.4	47.4	47.4	88	44.0	0	0	---	0.00	30.000 
06:45	47.6	47.6	47.6	88	44.2	0	0	---	0.00	30.000 
06:50	47.7	47.7	47.7	88	44.3	0	0	---	0.00	30.000 
06:55	47.9	47.9	47.9	88	44.5	0	0	---	0.00	30.000 
07:00	48.0	48.0	48.0	88	44.6	0	0	---	0.00	30.002 
07:05	48.2	48.2	48.2	88	44.8	0	0	---	0.00	30.002 
07:10	48.6	48.6	48.6	88	45.2	0	0	---	0.00	30.002 
07:15	48.9	48.9	48.9	88	45.5	0	0	---	0.00	30.010 
07:20	49.4	49.4	49.4	88	46.0	0	0	---	0.00	30.010 
07:25	49.8	49.8	49.8	87	46.1	0	0	---	0.00	30.010 
07:30	50.5	50.5	50.5	88	47.1	0	0	---	0.00	30.009 
07:35	51.3	51.3	51.3	86	47.3	0	0	---	0.00	30.009 
07:40	52.6	52.6	52.6	83	47.6	0	1	90	0.00	30.009 
07:45	53.8	53.8	53.8	81	48.1	0	0	---	0.00	30.011 
07:50	55.1	55.1	55.1	78	48.4	0	0	---	0.00	30.011 
07:55	56.3	56.3	56.3	77	49.2	0	0	---	0.00	30.011 
08:00	57.6	57.6	57.6	74	49.4	0	0	---	0.00	30.009 
08:05	58.7	58.7	58.7	73	50.1	0	0	---	0.00	30.009 
08:10	60.1	60.1	60.1	67	49.1	0	1	90	0.00	30.009 
08:15	61.2	61.2	61.2	63	48.5	0	1	90	0.00	30.012 
08:20	62.4	62.4	62.4	62	49.2	0	1	90	0.00	30.012 
08:25	63.1	63.1	63.1	59	48.5	0	1	90	0.00	30.012 
08:30	63.9	63.9	63.9	57	48.4	0	1	90	0.00	30.017 
08:35	64.5	64.5	64.5	54	47.5	0	1	90	0.00	30.017 
08:40	65.2	65.2	65.2	52	47.1	0	1	90	0.00	30.017 
08:45	66.0	66.0	66.0	53	48.4	0	1	90	0.00	30.014 
08:50	66.4	66.4	66.4	49	46.7	0	2	90	0.00	30.014 
08:55	67.1	67.1	67.1	49	47.3	0	1	90	0.00	30.014 
09:00	67.9	67.9	67.9	51	49.1	0	1	90	0.00	30.020 
09:05	68.3	68.3	68.3	48	47.8	0	1	90	0.00	30.020 
09:10	68.4	68.4	68.4	46	46.8	1	3	90	0.00	30.020 
09:15	68.4	68.4	68.4	47	47.4	0	1	90	0.00	30.028 
09:20	68.9	68.9	68.9	46	47.3	0	1	90	0.00	30.028 
09:25	69.4	69.4	69.4	43	45.9	0	1	90	0.00	30.028 
09:30	69.6	69.6	69.6	42	45.5	1	3	90	0.00	30.026 
09:35	69.8	69.8	69.8	43	46.3	0	2	90	0.00	30.026 
09:40	70.3	70.3	70.3	44	47.3	0	1	90	0.00	30.026 
09:45	71.3	71.3	71.3	43	47.6	0	1	90	0.00	30.023 
09:50	71.8	71.8	71.8	41	46.8	0	2	90	0.00	30.023 
09:55	72.3	72.3	72.3	39	45.9	0	3	90	0.00	30.023 
10:00	72.3	72.3	72.3	38	45.3	0	3	292	0.00	30.021 
10:05	72.1	72.1	72.1	39	45.8	1	4	292	0.00	30.021 
10:10	72.3	72.3	72.3	38	45.3	1	4	292	0.00	30.021 
10:15	72.7	72.7	72.7	39	46.3	0	3	292	0.00	30.027 
10:20	73.0	73.0	73.0	38	45.9	1	2	292	0.00	30.027 
10:25	73.3	73.3	73.3	39	46.8	0	3	292	0.00	30.027 
10:30	73.9	73.9	73.9	39	47.4	1	3	292	0.00	30.024 
10:35	74.2	74.2	74.2	37	46.2	0	1	292	0.00	30.024 
10:40	74.7	74.7	74.7	37	46.7	1	4	292	0.00	30.024 
10:45	74.9	74.9	74.9	36	46.1	0	2	292	0.00	30.023 
10:50	75.3	75.3	77.4	35	45.7	2	5	292	0.00	30.023 
10:55	75.4	75.4	77.4	35	45.8	1	4	292	0.00	30.023 
11:00	76.0	76.0	77.5	33	44.8	1	3	292	0.00	30.023 
11:05	76.1	76.1	77.6	34	45.7	0	3	292	0.00	30.023 
11:10	76.5	76.5	77.7	34	46.0	1	4	292	0.00	30.023 
11:15	76.8	76.8	77.8	33	45.5	1	5	90	0.00	30.025 
11:20	77.2	77.2	78.1	36	48.2	0	1	270	0.00	30.025 
11:25	77.7	77.7	78.3	36	48.6	1	4	270	0.00	30.025 
11:30	78.3	78.3	78.6	35	48.4	0	2	292	0.00	30.022 
11:35	78.5	78.5	78.4	31	45.3	0	2	292	0.00	30.022 
11:40	78.8	78.8	78.8	35	48.8	0	2	292	0.00	30.022 
11:45	78.6	78.6	78.5	31	45.4	2	6	292	0.00	30.024 
11:50	78.3	78.3	78.5	33	46.8	1	4	292	0.00	30.024 
11:55	78.3	78.3	78.4	32	46.0	1	6	292	0.00	30.024 
12:00	78.3	78.3	78.5	33	46.8	1	4	270	0.00	30.023 
12:05	78.6	78.6	78.7	35	48.6	0	2	90	0.00	30.023 
12:10	79.0	79.0	79.0	35	49.0	1	3	90	0.00	30.023 
12:15	79.2	79.2	78.9	32	46.8	0	2	90	0.00	30.022 
12:20	79.4	79.4	78.9	31	46.1	1	5	292	0.00	30.022 
12:25	79.6	79.6	79.2	33	47.9	1	3	292	0.00	30.022 
12:30	79.6	79.6	79.0	31	46.3	0	4	292	0.00	30.025 
12:35	79.9	79.9	79.4	34	49.0	1	3	292	0.00	30.025 
12:40	79.9	79.9	79.2	31	46.5	1	3	292	0.00	30.025 
12:45	80.1	80.1	79.4	32	47.6	2	6	292	0.00	30.023 
12:50	79.9	79.9	79.2	31	46.5	2	4	292	0.00	30.023 
12:55	79.8	79.8	79.1	31	46.5	2	4	315	0.00	30.023 
13:00	79.8	79.8	79.1	31	46.5	1	4	315	0.00	30.022 
13:05	80.3	80.3	79.5	32	47.7	0	2	315	0.00	30.022 
13:10	80.9	80.9	79.8	31	47.4	0	2	315	0.00	30.022 
13:15	81.2	81.2	80.0	31	47.7	0	2	315	0.00	30.015 
13:20	81.4	81.4	80.1	30	47.0	1	3	315	0.00	30.015 
13:25	81.1	81.1	79.9	30	46.7	1	3	315	0.00	30.015 
13:30	81.2	81.2	80.3	35	50.9	0	1	315	0.00	30.012 
13:35	81.6	81.6	80.5	34	50.5	0	1	315	0.00	30.012 
13:40	82.0	82.0	80.7	32	49.2	1	3	315	0.00	30.012 
13:45	82.2	82.2	81.0	34	51.0	0	1	315	0.00	30.009 
13:50	82.4	82.4	81.2	35	52.0	0	2	315	0.00	30.009 
13:55	82.6	82.6	80.9	30	48.0	0	2	315	0.00	30.009 
14:00	82.8	82.8	81.0	29	47.3	0	3	315	0.00	30.003 
14:05	82.8	82.8	81.0	29	47.3	0	3	315	0.00	30.003 
14:10	82.8	82.8	80.8	26	44.4	1	3	315	0.00	30.003 
14:15	82.4	82.4	80.6	28	46.0	1	3	315	0.00	30.008 
14:20	82.4	82.4	80.9	32	49.5	1	3	315	0.00	30.008 
14:25	82.8	82.8	80.9	28	46.3	1	2	315	0.00	30.008 
14:30	83.2	83.2	81.1	27	45.7	1	3	315	0.00	30.007 
14:35	83.4	83.4	81.3	27	45.9	1	5	112	0.00	30.007 
14:40	83.4	83.4	81.5	30	48.7	0	2	112	0.00	30.007 
14:45	83.6	83.6	81.5	28	47.0	0	1	112	0.00	30.004 
14:50	83.6	83.6	81.9	32	50.6	1	4	112	0.00	30.004 
14:55	83.8	83.8	81.6	27	46.2	0	3	112	0.00	30.004 
15:00	83.8	83.8	81.6	27	46.2	1	3	112	0.00	30.003 
15:05	83.4	83.4	81.4	28	46.8	2	5	292	0.00	30.003 
15:10	83.4	83.4	81.4	28	46.8	1	3	292	0.00	30.003 
15:15	83.8	83.8	81.6	27	46.2	0	1	158	0.00	30.009 
15:20	84.1	84.1	82.4	33	51.9	0	1	158	0.00	30.009 
15:25	84.1	84.1	81.9	28	47.4	2	10	270	0.00	30.009 
15:30	84.1	84.1	81.9	28	47.4	1	4	292	0.00	30.003 
15:35	84.3	84.3	82.4	31	50.3	0	3	292	0.00	30.003 
15:40	84.7	84.7	82.3	27	47.0	0	2	292	0.00	30.003 
15:45	84.5	84.5	82.1	27	46.8	1	3	292	0.00	29.994 
15:50	84.5	84.5	82.2	28	47.8	1	5	292	0.00	29.994 
15:55	84.5	84.5	82.1	27	46.8	0	3	225	0.00	29.994 
16:00	84.5	84.5	82.2	28	47.8	1	3	90	0.00	29.992 
16:05	84.5	84.5	82.2	28	47.8	1	5	90	0.00	29.992 
16:10	84.5	84.5	82.1	27	46.8	0	3	90	0.00	29.992 
16:15	84.9	84.9	82.3	25	45.1	0	2	90	0.00	29.984 
16:20	85.3	85.3	82.8	27	47.5	0	1	90	0.00	29.984 
16:25	85.7	85.7	83.1	27	47.8	0	2	90	0.00	29.984 
16:30	85.7	85.7	83.0	26	46.8	0	1	90	0.00	29.976 
16:35	85.7	85.7	83.0	26	46.8	0	3	90	0.00	29.976 
16:40	85.9	85.9	83.4	28	49.0	0	2	90	0.00	29.976 
16:45	85.9	85.9	83.1	25	46.0	0	1	90	0.00	29.967 
16:50	85.7	85.7	82.8	23	43.6	0	2	90	0.00	29.967 
16:55	86.1	86.1	83.6	28	49.1	0	1	90	0.00	29.967 
17:00	86.3	86.3	83.6	26	47.3	0	1	90	0.00	29.961 
17:05	86.3	86.3	83.4	24	45.2	0	1	90	0.00	29.961 
17:10	86.1	86.1	83.3	25	46.1	0	2	90	0.00	29.961 
17:15	85.7	85.7	82.9	25	45.8	0	1	90	0.00	29.959 
17:20	85.5	85.5	82.8	25	45.6	0	2	90	0.00	29.959 
17:25	85.1	85.1	82.6	27	47.3	1	3	90	0.00	29.959 
17:30	84.7	84.7	82.2	26	46.0	0	3	90	0.00	29.964 
17:35	84.3	84.3	81.8	25	44.6	1	4	90	0.00	29.964 
17:40	84.0	84.0	81.6	26	45.4	1	4	90	0.00	29.964 
17:45	83.4	83.4	81.2	26	44.9	0	2	90	0.00	29.968 
17:50	83.2	83.2	81.2	28	46.7	0	3	90	0.00	29.968 
17:55	83.0	83.0	80.9	26	44.6	0	1	90	0.00	29.968 
18:00	83.0	83.0	80.9	26	44.6	0	2	90	0.00	29.971 
18:05	82.8	82.8	80.8	27	45.4	0	2	90	0.00	29.971 
18:10	82.6	82.6	80.7	27	45.2	0	1	90	0.00	29.971 
18:15	82.6	82.6	80.5	25	43.2	1	3	90	0.00	29.970 
18:20	82.6	82.6	80.8	28	46.2	0	1	90	0.00	29.970 
18:25	82.4	82.4	80.5	27	45.0	0	2	90	0.00	29.970 
18:30	82.4	82.4	80.5	27	45.0	0	1	90	0.00	29.976 
18:35	82.2	82.2	80.4	27	44.9	0	1	90	0.00	29.976 
18:40	82.0	82.0	80.3	27	44.7	0	1	90	0.00	29.976 
18:45	82.0	82.0	80.3	28	45.7	0	1	90	0.00	29.975 
18:50	81.8	81.8	80.1	27	44.5	0	2	90	0.00	29.975 
18:55	81.8	81.8	80.2	28	45.5	0	1	90	0.00	29.975 
19:00	81.8	81.8	80.1	26	43.5	0	1	90	0.00	29.979 
19:05	81.6	81.6	80.1	28	45.3	0	1	90	0.00	29.979 
19:10	81.6	81.6	80.1	28	45.3	0	1	90	0.00	29.979 
19:15	81.4	81.4	79.8	26	43.2	0	2	338	0.00	29.975 
19:20	81.2	81.2	79.7	27	44.0	0	1	338	0.00	29.975 
19:25	81.2	81.2	79.7	27	44.0	0	2	338	0.00	29.975 
19:30	81.1	81.1	79.7	28	44.9	0	1	338	0.00	29.977 
19:35	80.9	80.9	79.6	28	44.7	0	1	338	0.00	29.977 
19:40	80.7	80.7	79.5	28	44.5	0	1	338	0.00	29.977 
19:45	80.5	80.5	79.4	28	44.4	0	1	338	0.00	29.976 
19:50	80.3	80.3	79.2	28	44.2	0	0	---	0.00	29.976 
19:55	79.9	79.9	78.9	27	42.9	0	1	338	0.00	29.976 
20:00	79.8	79.8	78.9	28	43.8	0	0	---	0.00	29.975 
20:05	79.6	79.6	78.9	29	44.5	0	0	---	0.00	29.975 
20:10	79.2	79.2	78.7	29	44.2	0	0	---	0.00	29.975 
20:15	79.0	79.0	78.6	30	44.9	0	0	---	0.00	29.968 
20:20	78.6	78.6	78.4	30	44.6	0	0	---	0.00	29.968 
20:25	78.5	78.5	78.4	30	44.5	0	0	---	0.00	29.968 
20:30	78.1	78.1	78.2	31	45.0	0	0	---	0.00	29.969 
20:35	77.9	77.9	78.2	32	45.6	0	0	---	0.00	29.969 
20:40	77.6	77.6	78.1	32	45.4	0	0	---	0.00	29.969 
20:45	77.2	77.2	77.9	32	45.0	0	0	---	0.00	29.969 
20:50	77.0	77.0	77.8	32	44.9	0	0	---	0.00	29.969 
20:55	76.7	76.7	77.7	33	45.4	0	0	---	0.00	29.969 
21:00	76.3	76.3	77.6	33	45.1	0	0	---	0.00	29.969 
21:05	76.0	76.0	77.5	33	44.8	0	0	---	0.00	29.969 
21:10	75.6	75.6	77.4	35	46.0	0	0	---	0.00	29.969 
21:15	75.1	75.1	77.3	35	45.6	0	0	---	0.00	29.972 
21:20	74.7	74.7	74.7	35	45.2	0	0	---	0.00	29.972 
21:25	74.2	74.2	74.2	36	45.5	0	0	---	0.00	29.972 
21:30	73.7	73.7	73.7	38	46.5	0	0	---	0.00	29.979 
21:35	73.2	73.2	73.2	38	46.1	0	0	---	0.00	29.979 
21:40	72.7	72.7	72.7	40	47.0	0	0	---	0.00	29.979 
21:45	72.1	72.1	72.1	42	47.7	0	0	---	0.00	29.984 
21:50	71.6	71.6	71.6	42	47.3	0	0	---	0.00	29.984 
21:55	71.1	71.1	71.1	43	47.5	0	0	---	0.00	29.984 
22:00	70.8	70.8	70.8	44	47.8	0	0	---	0.00	29.985 
22:05	70.3	70.3	70.3	43	46.7	0	0	---	0.00	29.985 
22:10	69.9	69.9	69.9	43	46.4	0	0	---	0.00	29.985 
22:15	69.6	69.6	69.6	43	46.1	0	0	---	0.00	29.984 
22:20	69.4	69.4	69.4	44	46.5	0	0	---	0.00	29.984 
22:25	69.1	69.1	69.1	43	45.7	0	0	---	0.00	29.984 
22:30	68.9	68.9	68.9	46	47.3	0	0	---	0.00	29.989 
22:35	68.6	68.6	68.6	45	46.4	0	0	---	0.00	29.989 
22:40	68.4	68.4	68.4	44	45.6	0	0	---	0.00	29.989 
22:45	68.1	68.1	68.1	44	45.4	0	0	---	0.00	29.996 
22:50	67.9	67.9	67.9	46	46.3	0	0	---	0.00	29.996 
22:55	67.8	67.8	67.8	46	46.3	0	0	---	0.00	29.996 
23:00	67.4	67.4	67.4	46	45.9	0	0	---	0.00	30.002 
23:05	67.3	67.3	67.3	49	47.5	0	0	---	0.00	30.002 
23:10	67.1	67.1	67.1	47	46.2	0	0	---	0.00	30.002 
23:15	66.9	66.9	66.9	49	47.1	0	0	---	0.00	30.000 
23:20	66.6	66.6	66.6	47	45.7	0	0	---	0.00	30.000 
23:25	66.6	66.6	66.6	47	45.7	0	0	---	0.00	30.000 
23:30	66.4	66.4	66.4	47	45.5	0	0	---	0.00	30.001 
23:35	66.3	66.3	66.3	50	47.1	0	0	---	0.00	30.001 
23:40	66.1	66.1	66.1	48	45.8	0	0	---	0.00	30.001 
23:45	65.8	65.8	65.8	49	46.1	0	0	---	0.00	30.000 
23:50	65.6	65.6	65.6	50	46.5	0	0	---	0.00	30.000 
23:55	65.5	65.5	65.5	51	46.9	0	0	---	0.00	30.000 

CoCoRaHS
IN-AL-39
A2 Web Hosting
Creative Commons License
GoDaddy
search engine by freefind advanced

loaded 2018-11-20 06:27:36 • last modified 2010-11-18 10:43:29
Privacy PolicyDisclaimer
• wx.awcolley.com is powered by PmWiki v.2002016 •
• all content (unless otherwise noted) © 2018 A W Colley